createdAt,value
2023-01-26T00:00:15.112Z,24.70
2023-01-26T00:02:44.968Z,24.70
2023-01-26T00:05:15.144Z,24.66
2023-01-26T00:07:46.311Z,24.63
2023-01-26T00:10:16.311Z,24.59
2023-01-26T00:12:46.213Z,24.49
2023-01-26T00:15:15.716Z,24.50
2023-01-26T00:17:44.918Z,24.54
2023-01-26T00:20:15.092Z,24.56
2023-01-26T00:22:45.055Z,24.40
2023-01-26T00:25:14.990Z,24.35
2023-01-26T00:27:44.991Z,24.34
2023-01-26T00:30:18.275Z,24.33
2023-01-26T00:32:47.806Z,24.36
2023-01-26T00:35:17.097Z,24.38
2023-01-26T00:37:46.374Z,24.41
2023-01-26T00:40:15.560Z,24.42
2023-01-26T00:42:46.896Z,24.46
2023-01-26T00:45:16.336Z,24.50
2023-01-26T00:47:45.811Z,24.53
2023-01-26T00:50:15.958Z,24.55
2023-01-26T00:52:46.235Z,24.59
2023-01-26T00:55:15.893Z,24.85
2023-01-26T00:57:45.865Z,24.92
2023-01-26T01:00:17.840Z,24.85
2023-01-26T01:02:47.335Z,24.83
2023-01-26T01:05:16.531Z,24.81
2023-01-26T01:07:45.836Z,24.83
2023-01-26T01:10:18.447Z,24.84
2023-01-26T01:12:47.547Z,24.83
2023-01-26T01:15:16.794Z,24.85
2023-01-26T01:17:46.080Z,24.86
2023-01-26T01:20:15.276Z,24.87
2023-01-26T01:22:45.254Z,24.87
2023-01-26T01:25:15.112Z,24.87
2023-01-26T01:27:45.087Z,24.89
2023-01-26T01:30:15.602Z,24.88
2023-01-26T01:32:45.747Z,24.92
2023-01-26T01:35:15.201Z,24.87
2023-01-26T01:37:45.475Z,24.84
2023-01-26T01:40:15.413Z,24.83
2023-01-26T01:42:51.062Z,24.86
2023-01-26T01:45:24.817Z,24.86
2023-01-26T01:47:55.356Z,24.85
2023-01-26T01:50:24.614Z,24.84
2023-01-26T01:52:54.409Z,24.85
2023-01-26T01:55:23.656Z,24.86
2023-01-26T01:57:54.246Z,24.84
2023-01-26T02:00:23.947Z,24.86
2023-01-26T02:03:12.748Z,24.83
2023-01-26T02:05:52.653Z,24.83
2023-01-26T02:08:21.848Z,24.80
2023-01-26T02:10:51.322Z,24.80
2023-01-26T02:13:20.572Z,24.82
2023-01-26T02:15:50.012Z,24.79
2023-01-26T02:18:19.325Z,24.83
2023-01-26T02:20:59.126Z,24.80
2023-01-26T02:23:30.165Z,24.81
2023-01-26T02:26:03.932Z,24.72
2023-01-26T02:28:33.688Z,24.64
2023-01-26T02:31:03.181Z,24.55
2023-01-26T02:33:32.931Z,24.58
2023-01-26T02:36:03.694Z,24.59
2023-01-26T02:38:34.384Z,24.74
2023-01-26T02:41:07.789Z,24.78
2023-01-26T02:43:37.056Z,24.82
2023-01-26T02:46:06.387Z,24.77
2023-01-26T02:48:53.252Z,24.62
2023-01-26T02:51:23.897Z,24.56
2023-01-26T02:53:53.280Z,24.58
2023-01-26T02:56:22.576Z,24.60
2023-01-26T02:58:51.747Z,24.62
2023-01-26T03:01:20.954Z,24.63
2023-01-26T03:03:50.203Z,24.66
2023-01-26T03:06:19.482Z,24.68
2023-01-26T03:08:48.866Z,24.70
2023-01-26T03:11:18.141Z,24.71
2023-01-26T03:13:47.314Z,24.73
2023-01-26T03:16:17.908Z,24.75
2023-01-26T03:19:06.819Z,24.76
2023-01-26T03:21:53.828Z,24.79
2023-01-26T03:24:40.521Z,24.81
2023-01-26T03:27:30.681Z,24.81
2023-01-26T03:29:59.514Z,24.83
2023-01-26T03:32:28.796Z,24.84
2023-01-26T03:34:58.121Z,24.86
2023-01-26T03:37:27.398Z,24.84
2023-01-26T03:40:14.151Z,24.84
2023-01-26T03:43:01.319Z,24.86
2023-01-26T03:45:48.491Z,24.87
2023-01-26T03:48:35.399Z,24.85
2023-01-26T03:51:22.324Z,24.87
2023-01-26T03:54:08.651Z,24.94
2023-01-26T03:56:37.832Z,24.94
2023-01-26T03:59:10.313Z,24.90
2023-01-26T04:01:41.044Z,24.88
2023-01-26T04:04:27.676Z,24.86
2023-01-26T04:07:14.462Z,24.83
2023-01-26T04:09:44.580Z,24.80
2023-01-26T04:12:14.972Z,24.76
2023-01-26T04:15:02.090Z,24.75
2023-01-26T04:17:48.882Z,24.74
2023-01-26T04:20:35.520Z,24.70
2023-01-26T04:23:06.719Z,24.67
2023-01-26T04:25:36.000Z,24.66
2023-01-26T04:28:05.234Z,24.64
2023-01-26T04:30:34.627Z,24.62
2023-01-26T04:33:03.871Z,24.61
2023-01-26T04:35:33.139Z,24.58
2023-01-26T04:38:02.477Z,24.56
2023-01-26T04:40:31.771Z,24.53
2023-01-26T04:43:01.086Z,24.51
2023-01-26T04:45:30.379Z,24.48
2023-01-26T04:47:59.523Z,24.46
2023-01-26T04:50:28.893Z,24.42
2023-01-26T04:52:58.132Z,24.37
2023-01-26T04:55:27.402Z,24.34
2023-01-26T04:57:58.143Z,24.33
2023-01-26T05:00:27.656Z,24.31
2023-01-26T05:02:57.024Z,24.28
2023-01-26T05:05:26.389Z,24.26
2023-01-26T05:07:55.477Z,24.22
2023-01-26T05:10:24.553Z,24.19
2023-01-26T05:12:53.834Z,24.19
2023-01-26T05:15:23.111Z,24.18
2023-01-26T05:17:52.362Z,24.16
2023-01-26T05:20:21.683Z,24.15
2023-01-26T05:22:50.870Z,24.11
2023-01-26T05:25:20.084Z,24.11
2023-01-26T05:27:49.357Z,24.09
2023-01-26T05:30:18.693Z,24.10
2023-01-26T05:32:47.967Z,24.07
2023-01-26T05:35:17.274Z,24.06
2023-01-26T05:37:46.725Z,24.04
2023-01-26T05:40:16.606Z,24.05
2023-01-26T05:42:47.470Z,24.05
2023-01-26T05:45:16.882Z,24.03
2023-01-26T05:47:47.002Z,24.02
2023-01-26T05:50:16.731Z,24.00
2023-01-26T05:52:47.484Z,24.01
2023-01-26T05:55:16.686Z,23.99
2023-01-26T05:57:47.356Z,23.99
2023-01-26T06:00:16.899Z,23.97
2023-01-26T06:02:48.599Z,23.94
2023-01-26T06:05:17.524Z,23.95
2023-01-26T06:07:46.646Z,23.93
2023-01-26T06:10:17.119Z,23.93
2023-01-26T06:12:46.791Z,23.92
2023-01-26T06:15:16.804Z,23.88
2023-01-26T06:17:46.688Z,23.89
2023-01-26T06:20:16.731Z,23.88
2023-01-26T06:22:46.780Z,23.89
2023-01-26T06:25:16.781Z,23.87
2023-01-26T06:27:46.770Z,23.87
2023-01-26T06:30:16.884Z,23.85
2023-01-26T06:32:48.192Z,23.85
2023-01-26T06:35:17.578Z,23.83
2023-01-26T06:37:46.778Z,23.84
2023-01-26T06:40:16.981Z,23.83
2023-01-26T06:42:49.839Z,23.82
2023-01-26T06:45:19.150Z,23.82
2023-01-26T06:47:48.654Z,23.81
2023-01-26T06:50:18.224Z,23.82
2023-01-26T06:52:48.163Z,23.80
2023-01-26T06:55:21.139Z,23.79
2023-01-26T06:57:50.972Z,23.81
2023-01-26T07:00:20.504Z,23.80
2023-01-26T07:02:49.717Z,23.79
2023-01-26T07:05:18.964Z,23.78
2023-01-26T07:07:48.067Z,23.81
2023-01-26T07:10:17.605Z,23.77
2023-01-26T07:12:47.083Z,23.78
2023-01-26T07:15:16.477Z,23.79
2023-01-26T07:17:45.955Z,23.78
2023-01-26T07:20:15.956Z,23.80
2023-01-26T07:22:45.989Z,23.80
2023-01-26T07:25:16.223Z,23.81
2023-01-26T07:27:45.361Z,23.78
2023-01-26T07:30:15.640Z,23.76
2023-01-26T07:32:45.226Z,23.79
2023-01-26T07:35:15.369Z,23.80
2023-01-26T07:37:45.368Z,23.81
2023-01-26T07:40:15.390Z,23.80
2023-01-26T07:42:45.141Z,23.81
2023-01-26T07:45:15.606Z,23.81
2023-01-26T07:47:45.129Z,23.81
2023-01-26T07:50:15.286Z,23.77
2023-01-26T07:52:46.052Z,23.87
2023-01-26T07:55:16.436Z,23.93
2023-01-26T07:57:46.221Z,23.99
2023-01-26T08:00:16.671Z,24.02
2023-01-26T08:02:46.544Z,24.05
2023-01-26T08:05:16.080Z,24.11
2023-01-26T08:07:46.124Z,24.14
2023-01-26T08:10:16.079Z,24.17
2023-01-26T08:12:46.182Z,24.23
2023-01-26T08:15:16.065Z,24.24
2023-01-26T08:17:46.297Z,24.26
2023-01-26T08:20:16.049Z,24.33
2023-01-26T08:22:45.207Z,24.32
2023-01-26T08:25:15.481Z,24.36
2023-01-26T08:27:45.280Z,24.38
2023-01-26T08:30:16.782Z,24.39
2023-01-26T08:32:46.164Z,24.43
2023-01-26T08:35:16.320Z,24.44
2023-01-26T08:37:46.306Z,24.45
2023-01-26T08:40:17.324Z,24.48
2023-01-26T08:42:47.024Z,24.49
2023-01-26T08:45:16.669Z,24.49
2023-01-26T08:47:46.469Z,24.48
2023-01-26T08:50:16.114Z,24.49
2023-01-26T08:52:46.379Z,24.47
2023-01-26T08:55:16.238Z,24.44
2023-01-26T08:57:47.611Z,24.42
2023-01-26T09:00:17.672Z,24.38
2023-01-26T09:02:47.063Z,24.37
2023-01-26T09:05:16.903Z,24.36
2023-01-26T09:07:46.520Z,24.33
2023-01-26T09:10:16.444Z,24.26
2023-01-26T09:12:46.369Z,24.25
2023-01-26T09:15:16.708Z,24.22
2023-01-26T09:17:46.419Z,24.20
2023-01-26T09:20:16.611Z,24.18
2023-01-26T09:22:46.544Z,24.13
2023-01-26T09:25:16.453Z,24.09
2023-01-26T09:27:46.474Z,24.08
2023-01-26T09:30:17.209Z,24.09
2023-01-26T09:32:47.350Z,24.15
2023-01-26T09:35:17.994Z,24.19
2023-01-26T09:37:47.589Z,24.22
2023-01-26T09:40:21.191Z,24.25
2023-01-26T09:43:05.579Z,24.26
2023-01-26T09:45:39.386Z,24.27
2023-01-26T09:48:12.997Z,24.33
2023-01-26T09:50:52.609Z,24.35
2023-01-26T09:53:23.636Z,24.39
2023-01-26T09:55:52.861Z,24.36
2023-01-26T09:58:23.515Z,24.34
2023-01-26T10:00:59.006Z,24.33
2023-01-26T10:03:29.448Z,24.30
2023-01-26T10:06:05.943Z,24.26
2023-01-26T10:08:35.263Z,24.25
2023-01-26T10:11:05.793Z,24.21
2023-01-26T10:13:35.059Z,24.18
2023-01-26T10:16:06.277Z,24.15
2023-01-26T10:18:36.768Z,24.13
2023-01-26T10:21:06.645Z,24.10
2023-01-26T10:23:35.964Z,24.08
2023-01-26T10:26:15.538Z,24.08
2023-01-26T10:28:46.056Z,24.05
2023-01-26T10:31:24.717Z,24.07
2023-01-26T10:33:55.025Z,24.06
2023-01-26T10:36:24.382Z,24.04
2023-01-26T10:38:53.678Z,24.04
2023-01-26T10:41:24.381Z,24.03
2023-01-26T10:44:00.309Z,24.01
2023-01-26T10:46:30.512Z,24.00
2023-01-26T10:49:00.974Z,23.98
2023-01-26T10:51:30.974Z,24.04
2023-01-26T10:54:15.730Z,24.03
2023-01-26T10:56:55.001Z,24.03
2023-01-26T10:59:31.642Z,24.03
2023-01-26T11:02:04.424Z,24.01
2023-01-26T11:04:33.725Z,24.06
2023-01-26T11:07:04.641Z,24.08
2023-01-26T11:09:33.895Z,24.10
2023-01-26T11:12:06.964Z,24.11
2023-01-26T11:14:36.686Z,24.10
2023-01-26T11:17:10.806Z,24.08
2023-01-26T11:19:58.494Z,24.09
2023-01-26T11:23:00.649Z,24.10
2023-01-26T11:25:40.846Z,24.12
2023-01-26T11:28:17.465Z,24.12
2023-01-26T11:30:49.078Z,24.16
2023-01-26T11:33:22.960Z,24.15
2023-01-26T11:36:05.496Z,24.08
2023-01-26T11:38:44.483Z,24.01
2023-01-26T11:41:15.435Z,24.12
2023-01-26T11:43:49.147Z,24.22
2023-01-26T11:46:20.565Z,24.28
2023-01-26T11:49:00.466Z,24.37
2023-01-26T11:51:37.206Z,24.56
2023-01-26T11:54:10.716Z,24.79
2023-01-26T11:56:41.972Z,24.93
2023-01-26T11:59:18.641Z,25.05
2023-01-26T12:01:51.981Z,25.14
2023-01-26T12:04:22.003Z,25.18
2023-01-26T12:06:54.020Z,25.26
2023-01-26T12:09:24.373Z,25.31
2023-01-26T12:12:00.801Z,25.34
2023-01-26T12:14:31.343Z,25.36
2023-01-26T12:17:19.027Z,25.34
2023-01-26T12:19:55.962Z,25.29
2023-01-26T12:22:26.543Z,25.34
2023-01-26T12:25:19.139Z,25.37
2023-01-26T12:27:44.768Z,25.34
2023-01-26T12:30:30.645Z,25.37
2023-01-26T12:33:00.153Z,25.36
2023-01-26T12:35:36.797Z,25.35
2023-01-26T12:38:17.561Z,25.32
2023-01-26T12:40:39.520Z,25.32
2023-01-26T12:43:22.051Z,25.26
2023-01-26T12:45:51.291Z,25.24
2023-01-26T12:48:38.913Z,25.20
2023-01-26T12:51:09.488Z,25.17
2023-01-26T12:53:40.112Z,25.12
2023-01-26T12:56:13.643Z,25.09
2023-01-26T12:58:44.011Z,25.05
2023-01-26T13:01:14.816Z,25.09
2023-01-26T13:04:03.836Z,25.11
2023-01-26T13:06:33.125Z,25.07
2023-01-26T13:09:05.526Z,25.03
2023-01-26T13:11:54.201Z,25.00
2023-01-26T13:14:37.720Z,24.95
2023-01-26T13:17:20.878Z,24.91
2023-01-26T13:19:51.567Z,24.94
2023-01-26T13:22:23.229Z,24.98
2023-01-26T13:24:59.876Z,24.95
2023-01-26T13:27:42.785Z,24.89
2023-01-26T13:30:29.553Z,24.84
2023-01-26T13:33:00.725Z,24.80
2023-01-26T13:35:30.039Z,24.76
2023-01-26T13:38:00.552Z,24.73
2023-01-26T13:40:34.185Z,24.71
2023-01-26T13:43:25.922Z,24.72
2023-01-26T13:45:46.611Z,24.72
2023-01-26T13:48:17.003Z,24.69
2023-01-26T13:50:47.341Z,24.63
2023-01-26T13:53:34.520Z,24.60
2023-01-26T13:56:04.087Z,24.58
2023-01-26T13:58:33.478Z,24.55
2023-01-26T14:01:06.962Z,24.52
2023-01-26T14:03:36.275Z,24.50
2023-01-26T14:06:11.425Z,24.48
2023-01-26T14:08:40.645Z,24.51
2023-01-26T14:11:11.335Z,24.54
2023-01-26T14:13:40.589Z,24.49
2023-01-26T14:16:09.873Z,24.45
2023-01-26T14:18:41.447Z,24.43
2023-01-26T14:21:12.263Z,24.39
2023-01-26T14:23:41.524Z,24.38
2023-01-26T14:26:32.749Z,24.32
2023-01-26T14:29:02.007Z,24.34
2023-01-26T14:31:31.450Z,24.33
2023-01-26T14:34:01.098Z,24.31
2023-01-26T14:36:30.807Z,24.27
2023-01-26T14:39:01.530Z,24.28
2023-01-26T14:41:35.200Z,24.27
2023-01-26T14:44:06.050Z,24.22
2023-01-26T14:46:43.005Z,24.21
2023-01-26T14:49:13.556Z,24.21
2023-01-26T14:51:42.845Z,24.17
2023-01-26T14:54:22.887Z,24.17
2023-01-26T14:56:52.064Z,24.14
2023-01-26T14:59:22.595Z,24.14
2023-01-26T15:01:51.953Z,24.12
2023-01-26T15:04:22.573Z,24.12
2023-01-26T15:06:51.961Z,24.08
2023-01-26T15:09:26.064Z,24.07
2023-01-26T15:12:19.329Z,24.07
2023-01-26T15:14:50.477Z,24.04
2023-01-26T15:17:29.421Z,24.04
2023-01-26T15:19:58.688Z,24.03
2023-01-26T15:22:28.184Z,24.01
2023-01-26T15:25:01.921Z,24.00
2023-01-26T15:27:34.894Z,23.99
2023-01-26T15:30:05.254Z,23.96
2023-01-26T15:32:35.966Z,23.95
2023-01-26T15:35:06.507Z,23.98
2023-01-26T15:37:37.096Z,23.97
2023-01-26T15:40:06.937Z,23.94
2023-01-26T15:42:36.248Z,23.94
2023-01-26T15:45:05.941Z,23.92
2023-01-26T15:47:35.442Z,23.91
2023-01-26T15:50:04.892Z,23.90
2023-01-26T15:52:34.075Z,23.88
2023-01-26T15:55:03.473Z,23.91
2023-01-26T15:57:32.792Z,23.83
2023-01-26T16:00:02.379Z,23.76
2023-01-26T16:02:52.245Z,23.72
2023-01-26T16:05:22.584Z,23.70
2023-01-26T16:07:54.900Z,23.69
2023-01-26T16:10:25.071Z,23.65
2023-01-26T16:12:54.302Z,23.65
2023-01-26T16:15:30.781Z,23.64
2023-01-26T16:18:00.604Z,23.63
2023-01-26T16:20:29.890Z,23.58
2023-01-26T16:22:59.171Z,23.57
2023-01-26T16:25:29.471Z,23.55
2023-01-26T16:27:58.935Z,23.55
2023-01-26T16:30:28.238Z,23.52
2023-01-26T16:32:57.658Z,23.49
2023-01-26T16:35:27.516Z,23.47
2023-01-26T16:37:56.690Z,23.44
2023-01-26T16:40:26.201Z,23.42
2023-01-26T16:42:55.786Z,23.40
2023-01-26T16:45:27.574Z,23.43
2023-01-26T16:47:57.800Z,23.40
2023-01-26T16:50:27.426Z,23.41
2023-01-26T16:52:56.690Z,23.37
2023-01-26T16:55:26.079Z,23.38
2023-01-26T16:57:55.275Z,23.35
2023-01-26T17:00:25.606Z,23.36
2023-01-26T17:02:54.979Z,23.42
2023-01-26T17:05:24.237Z,23.48
2023-01-26T17:07:53.537Z,23.51
2023-01-26T17:10:24.150Z,23.56
2023-01-26T17:12:53.808Z,23.55
2023-01-26T17:15:23.091Z,23.57
2023-01-26T17:17:52.577Z,23.59
2023-01-26T17:20:22.548Z,23.60
2023-01-26T17:22:54.771Z,23.59
2023-01-26T17:25:24.184Z,23.62
2023-01-26T17:27:53.688Z,23.63
2023-01-26T17:30:23.035Z,23.65
2023-01-26T17:32:52.391Z,23.64
2023-01-26T17:35:22.879Z,23.67
2023-01-26T17:37:52.066Z,23.67
2023-01-26T17:40:21.491Z,23.70
2023-01-26T17:42:50.751Z,23.70
2023-01-26T17:45:19.999Z,23.70
2023-01-26T17:47:49.344Z,23.73
2023-01-26T17:50:18.677Z,23.73
2023-01-26T17:52:48.580Z,23.75
2023-01-26T17:55:17.787Z,23.74
2023-01-26T17:57:47.705Z,23.76
2023-01-26T18:00:17.475Z,23.75
2023-01-26T18:02:47.821Z,23.77
2023-01-26T18:05:17.409Z,23.78
2023-01-26T18:07:46.915Z,23.77
2023-01-26T18:10:17.437Z,23.78
2023-01-26T18:12:47.088Z,23.81
2023-01-26T18:15:16.730Z,23.77
2023-01-26T18:17:46.782Z,23.73
2023-01-26T18:20:17.302Z,23.71
2023-01-26T18:22:46.879Z,23.69
2023-01-26T18:25:20.894Z,23.67
2023-01-26T18:27:50.639Z,23.67
2023-01-26T18:30:20.940Z,23.65
2023-01-26T18:32:50.177Z,23.66
2023-01-26T18:35:19.692Z,23.64
2023-01-26T18:37:49.286Z,23.62
2023-01-26T18:40:18.846Z,23.60
2023-01-26T18:42:48.843Z,23.61
2023-01-26T18:45:18.067Z,23.58
2023-01-26T18:47:47.504Z,23.58
2023-01-26T18:50:17.878Z,23.60
2023-01-26T18:52:47.560Z,23.60
2023-01-26T18:55:17.600Z,23.57
2023-01-26T18:57:47.753Z,23.57
2023-01-26T19:00:17.935Z,23.58
2023-01-26T19:02:47.565Z,23.56
2023-01-26T19:05:17.686Z,23.57
2023-01-26T19:07:47.468Z,23.55
2023-01-26T19:10:17.900Z,23.55
2023-01-26T19:12:47.649Z,23.59
2023-01-26T19:15:17.648Z,23.61
2023-01-26T19:17:47.544Z,23.59
2023-01-26T19:20:17.575Z,23.60
2023-01-26T19:22:47.799Z,23.60
2023-01-26T19:25:17.202Z,23.61
2023-01-26T19:27:46.721Z,23.65
2023-01-26T19:30:16.935Z,23.68
2023-01-26T19:33:03.940Z,23.69
2023-01-26T19:35:33.241Z,23.68
2023-01-26T19:38:02.366Z,23.71
2023-01-26T19:40:31.577Z,23.71
2023-01-26T19:43:00.852Z,23.73
2023-01-26T19:45:30.416Z,23.73
2023-01-26T19:47:59.875Z,23.74
2023-01-26T19:50:29.129Z,23.77
2023-01-26T19:52:58.290Z,23.77
2023-01-26T19:55:27.815Z,23.82
2023-01-26T19:57:57.088Z,23.84
2023-01-26T20:00:26.904Z,23.83
2023-01-26T20:02:56.323Z,23.86
2023-01-26T20:05:27.472Z,23.87
2023-01-26T20:07:56.735Z,23.90
2023-01-26T20:10:25.914Z,23.90
2023-01-26T20:12:55.171Z,23.92
2023-01-26T20:15:24.369Z,23.94
2023-01-26T20:17:53.476Z,23.97
2023-01-26T20:20:23.093Z,23.97
2023-01-26T20:22:52.293Z,23.98
2023-01-26T20:25:21.593Z,23.99
2023-01-26T20:27:50.940Z,24.00
2023-01-26T20:30:20.277Z,24.02
2023-01-26T20:32:49.413Z,23.99
2023-01-26T20:35:18.830Z,23.98
2023-01-26T20:37:48.656Z,24.01
2023-01-26T20:40:18.715Z,24.01
2023-01-26T20:42:47.860Z,23.98
2023-01-26T20:45:17.897Z,24.00
2023-01-26T20:47:47.728Z,24.00
2023-01-26T20:50:17.957Z,23.99
2023-01-26T20:52:47.803Z,24.01
2023-01-26T20:55:17.805Z,24.03
2023-01-26T20:57:47.969Z,24.02
2023-01-26T21:00:18.367Z,23.99
2023-01-26T21:02:47.779Z,24.00
2023-01-26T21:05:17.228Z,24.00
2023-01-26T21:07:46.858Z,24.01
2023-01-26T21:10:16.355Z,24.03
2023-01-26T21:12:46.679Z,24.03
2023-01-26T21:15:16.094Z,24.03
2023-01-26T21:17:46.011Z,24.01
2023-01-26T21:20:16.731Z,24.04
2023-01-26T21:22:45.993Z,24.04
2023-01-26T21:25:15.173Z,24.04
2023-01-26T21:27:44.437Z,24.03
2023-01-26T21:30:14.248Z,24.00
2023-01-26T21:32:43.714Z,24.02
2023-01-26T21:35:14.313Z,24.03
2023-01-26T21:37:43.526Z,24.08
2023-01-26T21:40:13.746Z,24.08
2023-01-26T21:42:43.268Z,24.08
2023-01-26T21:45:30.116Z,24.08
2023-01-26T21:48:19.192Z,24.09
2023-01-26T21:51:06.145Z,24.10
2023-01-26T21:53:35.338Z,24.11
2023-01-26T21:56:04.615Z,24.09
2023-01-26T21:58:51.474Z,24.09
2023-01-26T22:01:20.715Z,24.10
2023-01-26T22:03:49.977Z,24.12
2023-01-26T22:06:19.851Z,24.09
2023-01-26T22:08:50.490Z,24.12
2023-01-26T22:11:20.835Z,24.10
2023-01-26T22:13:50.213Z,24.13
2023-01-26T22:16:19.522Z,24.14
2023-01-26T22:18:49.971Z,24.14
2023-01-26T22:21:19.673Z,24.17
2023-01-26T22:23:49.695Z,24.18
2023-01-26T22:26:21.787Z,24.20
2023-01-26T22:28:54.337Z,24.18
2023-01-26T22:31:24.020Z,24.20
2023-01-26T22:33:53.484Z,24.19
2023-01-26T22:36:23.171Z,24.19
2023-01-26T22:38:55.165Z,24.19
2023-01-26T22:41:27.844Z,24.21
2023-01-26T22:43:57.417Z,24.21
2023-01-26T22:46:26.483Z,24.25
2023-01-26T22:48:56.218Z,24.23
2023-01-26T22:51:26.369Z,24.24
2023-01-26T22:53:55.798Z,24.23
2023-01-26T22:56:25.265Z,24.27
2023-01-26T22:59:00.993Z,24.25
2023-01-26T23:01:30.436Z,24.18
2023-01-26T23:03:59.788Z,24.17
2023-01-26T23:06:28.995Z,24.19
2023-01-26T23:08:59.245Z,24.19
2023-01-26T23:11:29.121Z,24.19
2023-01-26T23:13:58.596Z,24.22
2023-01-26T23:16:28.141Z,24.25
2023-01-26T23:18:57.993Z,24.27
2023-01-26T23:21:27.234Z,24.29
2023-01-26T23:23:56.694Z,24.30
2023-01-26T23:26:27.375Z,24.32
2023-01-26T23:28:59.400Z,24.32
2023-01-26T23:31:28.782Z,24.34
2023-01-26T23:33:57.963Z,24.38
2023-01-26T23:36:27.206Z,24.37
2023-01-26T23:38:56.566Z,24.37
2023-01-26T23:41:25.710Z,24.38
2023-01-26T23:43:54.813Z,24.37
2023-01-26T23:46:24.082Z,24.37
2023-01-26T23:48:53.264Z,24.38
2023-01-26T23:51:25.544Z,24.37
2023-01-26T23:53:54.804Z,24.34
2023-01-26T23:56:24.081Z,24.32
2023-01-26T23:58:54.144Z,24.32
